createdAt,value
2023-04-19T00:00:23.946Z,13.45
2023-04-19T00:05:26.196Z,12.93
2023-04-19T00:10:28.441Z,11.98
2023-04-19T00:15:29.951Z,11.18
2023-04-19T00:20:31.408Z,11.60
2023-04-19T00:25:34.595Z,11.65
2023-04-19T00:30:36.297Z,11.70
2023-04-19T00:35:37.802Z,12.68
2023-04-19T00:40:39.300Z,12.27
2023-04-19T00:45:40.748Z,11.25
2023-04-19T00:50:44.313Z,10.95
2023-04-19T00:55:45.857Z,11.48
2023-04-19T01:00:47.332Z,9.85
2023-04-19T01:05:49.922Z,10.50
2023-04-19T01:10:51.391Z,9.25
2023-04-19T01:15:52.886Z,10.18
2023-04-19T01:20:54.473Z,9.43
2023-04-19T01:25:56.150Z,11.52
2023-04-19T01:30:57.673Z,10.45
2023-04-19T01:35:59.119Z,10.75
2023-04-19T01:41:00.576Z,10.63
2023-04-19T01:46:02.014Z,10.20
2023-04-19T01:51:03.588Z,10.00
2023-04-19T01:56:05.393Z,9.63
2023-04-19T02:01:06.841Z,9.40
2023-04-19T02:06:14.402Z,8.43
2023-04-19T02:11:15.884Z,7.72
2023-04-19T02:16:17.323Z,7.13
2023-04-19T02:21:18.857Z,8.05
2023-04-19T02:26:20.644Z,7.70
2023-04-19T02:31:22.157Z,7.80
2023-04-19T02:36:23.750Z,7.43
2023-04-19T02:41:25.249Z,6.53
2023-04-19T02:46:26.771Z,6.57
2023-04-19T02:51:28.299Z,5.97
2023-04-19T02:56:29.710Z,6.45
2023-04-19T03:01:32.351Z,6.32
2023-04-19T03:06:33.848Z,7.25
2023-04-19T03:11:35.778Z,6.60
2023-04-19T03:16:38.467Z,6.50
2023-04-19T03:21:39.920Z,5.40
2023-04-19T03:26:41.347Z,5.72
2023-04-19T03:31:42.916Z,5.47
2023-04-19T03:36:44.512Z,5.43
2023-04-19T03:41:45.969Z,5.43
2023-04-19T03:46:48.772Z,5.82
2023-04-19T03:51:50.485Z,6.07
2023-04-19T03:56:51.894Z,5.57
2023-04-19T04:01:53.367Z,6.20
2023-04-19T04:06:54.801Z,5.05
2023-04-19T04:11:56.222Z,5.13
2023-04-19T04:16:57.644Z,5.20
2023-04-19T04:21:59.040Z,5.03
2023-04-19T04:27:00.848Z,4.93
2023-04-19T04:32:03.222Z,4.32
2023-04-19T04:37:04.864Z,4.47
2023-04-19T04:42:08.663Z,4.85
2023-04-19T04:47:12.826Z,4.82
2023-04-19T04:52:14.252Z,4.93
2023-04-19T04:57:15.915Z,5.25
2023-04-19T05:02:17.409Z,4.78
2023-04-19T05:07:19.017Z,4.72
2023-04-19T05:12:20.523Z,5.07
2023-04-19T05:17:21.994Z,4.60
2023-04-19T05:22:23.514Z,4.50
2023-04-19T05:27:24.978Z,4.85
2023-04-19T05:32:27.506Z,4.55
2023-04-19T05:37:30.479Z,4.90
2023-04-19T05:42:32.074Z,4.50
2023-04-19T05:47:33.751Z,5.05
2023-04-19T05:52:35.334Z,4.50
2023-04-19T05:57:36.780Z,4.68
2023-04-19T06:02:40.748Z,4.65
2023-04-19T06:07:47.246Z,4.35
2023-04-19T06:12:55.795Z,4.10
2023-04-19T06:17:59.350Z,4.15
2023-04-19T06:23:01.369Z,4.68
2023-04-19T06:28:03.058Z,4.85
2023-04-19T06:33:04.609Z,4.50
2023-04-19T06:38:06.307Z,4.90
2023-04-19T06:43:07.762Z,4.20
2023-04-19T06:48:09.304Z,4.53
2023-04-19T06:53:10.876Z,4.22
2023-04-19T06:58:12.456Z,4.55
2023-04-19T07:03:13.941Z,4.60
2023-04-19T07:08:16.104Z,4.70
2023-04-19T07:13:17.589Z,4.78
2023-04-19T07:18:19.390Z,4.55
2023-04-19T07:23:20.810Z,4.95
2023-04-19T07:28:22.294Z,5.10
2023-04-19T07:33:27.861Z,5.25
2023-04-19T07:38:29.684Z,5.05
2023-04-19T07:43:31.111Z,5.82
2023-04-19T07:48:32.546Z,5.65
2023-04-19T07:53:33.964Z,5.70
2023-04-19T07:58:36.469Z,5.50
2023-04-19T08:03:38.241Z,5.45
2023-04-19T08:08:39.926Z,5.93
2023-04-19T08:13:42.158Z,5.88
2023-04-19T08:18:51.525Z,5.88
2023-04-19T08:23:55.655Z,5.88
2023-04-19T08:28:57.089Z,5.32
2023-04-19T08:34:00.202Z,5.53
2023-04-19T08:39:06.729Z,5.95
2023-04-19T08:44:12.366Z,5.75
2023-04-19T08:49:15.241Z,6.10
2023-04-19T08:54:18.279Z,6.65
2023-04-19T08:59:20.124Z,6.38
2023-04-19T09:04:36.563Z,6.68
2023-04-19T09:09:55.652Z,6.65
2023-04-19T09:15:04.366Z,6.75
2023-04-19T09:20:07.188Z,6.25
2023-04-19T09:30:24.201Z,7.18
2023-04-19T09:35:48.211Z,6.47
2023-04-19T09:40:50.386Z,6.80
2023-04-19T09:45:52.529Z,7.07
2023-04-19T09:51:00.799Z,6.78
2023-04-19T09:56:06.287Z,7.15
2023-04-19T10:01:15.559Z,5.53
2023-04-19T10:11:27.387Z,7.20
2023-04-19T10:16:30.654Z,7.25
2023-04-19T10:21:33.297Z,7.53
2023-04-19T10:27:03.140Z,7.22
2023-04-19T10:32:06.192Z,7.30
2023-04-19T10:37:11.248Z,6.75
2023-04-19T10:42:13.131Z,6.72
2023-04-19T10:47:44.621Z,7.03
2023-04-19T10:52:46.212Z,6.82
2023-04-19T10:58:06.569Z,7.88
2023-04-19T11:03:45.282Z,7.75
2023-04-19T11:08:47.268Z,7.28
2023-04-19T11:13:48.800Z,8.13
2023-04-19T11:18:50.237Z,7.55
2023-04-19T11:24:10.491Z,8.25
2023-04-19T11:29:12.861Z,9.23
2023-04-19T11:34:14.717Z,8.52
2023-04-19T11:39:16.504Z,7.78
2023-04-19T11:44:22.320Z,8.68
2023-04-19T11:49:28.908Z,8.90
2023-04-19T11:54:30.597Z,8.93
2023-04-19T11:59:34.855Z,8.77
2023-04-19T12:04:37.722Z,8.65
2023-04-19T12:09:39.428Z,8.18
2023-04-19T12:14:52.250Z,7.40
2023-04-19T12:19:53.703Z,7.85
2023-04-19T12:24:55.989Z,9.00
2023-04-19T12:29:57.422Z,8.70
2023-04-19T12:34:58.850Z,9.60
2023-04-19T12:40:00.372Z,9.60
2023-04-19T12:45:01.805Z,8.70
2023-04-19T12:50:03.814Z,9.07
2023-04-19T12:55:05.921Z,9.80
2023-04-19T13:00:10.603Z,9.88
2023-04-19T13:05:12.979Z,7.90
2023-04-19T13:10:14.450Z,6.63
2023-04-19T13:15:15.908Z,6.78
2023-04-19T13:20:20.221Z,7.80
2023-04-19T13:25:22.223Z,7.30
2023-04-19T13:30:23.686Z,7.95
2023-04-19T13:35:25.196Z,8.20
2023-04-19T13:40:26.893Z,8.43
2023-04-19T13:45:28.303Z,8.35
2023-04-19T13:50:30.082Z,8.35
2023-04-19T13:55:31.612Z,8.52
2023-04-19T14:00:33.925Z,7.90
2023-04-19T14:05:35.913Z,8.63
2023-04-19T14:10:38.039Z,7.97
2023-04-19T14:15:40.911Z,10.15
2023-04-19T14:20:42.361Z,8.20
2023-04-19T14:25:43.778Z,7.88
2023-04-19T14:30:45.225Z,8.30
2023-04-19T14:35:46.733Z,8.65
2023-04-19T14:40:48.398Z,7.72
2023-04-19T14:45:50.027Z,7.28
2023-04-19T14:50:51.835Z,7.20
2023-04-19T14:55:53.259Z,7.15
2023-04-19T15:00:54.875Z,7.50
2023-04-19T15:05:56.336Z,7.57
2023-04-19T15:10:57.751Z,7.63
2023-04-19T15:16:01.842Z,7.35
2023-04-19T15:21:05.153Z,6.70
2023-04-19T15:26:06.712Z,7.03
2023-04-19T15:31:08.900Z,6.35
2023-04-19T15:36:10.370Z,6.15
2023-04-19T15:41:11.828Z,6.15
2023-04-19T15:46:14.073Z,6.95
2023-04-19T15:51:16.104Z,6.72
2023-04-19T15:56:17.562Z,7.35
2023-04-19T16:01:19.421Z,8.13
2023-04-19T16:06:21.797Z,7.47
2023-04-19T16:11:23.371Z,8.02
2023-04-19T16:16:27.013Z,7.90
2023-04-19T16:21:28.783Z,6.65
2023-04-19T16:26:30.292Z,7.00
2023-04-19T16:31:31.996Z,8.73
2023-04-19T16:36:33.451Z,6.90
2023-04-19T16:41:34.875Z,6.55
2023-04-19T16:46:36.522Z,7.28
2023-04-19T16:51:38.273Z,6.70
2023-04-19T16:56:39.756Z,7.18
2023-04-19T17:01:41.280Z,7.68
2023-04-19T17:06:42.722Z,7.10
2023-04-19T17:11:44.267Z,6.70
2023-04-19T17:16:46.029Z,6.55
2023-04-19T17:21:47.461Z,6.50
2023-04-19T17:26:49.820Z,6.95
2023-04-19T17:31:51.362Z,6.70
2023-04-19T17:36:52.847Z,6.07
2023-04-19T17:41:54.919Z,6.82
2023-04-19T17:46:57.208Z,7.20
2023-04-19T17:51:58.835Z,6.88
2023-04-19T17:57:02.516Z,7.07
2023-04-19T18:02:04.169Z,10.23
2023-04-19T18:07:06.087Z,7.03
2023-04-19T18:12:07.688Z,7.80
2023-04-19T18:17:09.152Z,8.48
2023-04-19T18:22:10.579Z,8.52
2023-04-19T18:27:12.696Z,7.95
2023-04-19T18:32:14.295Z,7.10
2023-04-19T18:37:16.934Z,7.55
2023-04-19T18:42:18.373Z,7.43
2023-04-19T18:47:20.170Z,7.40
2023-04-19T18:52:21.622Z,6.80
2023-04-19T18:57:24.356Z,7.22
2023-04-19T19:02:29.029Z,7.80
2023-04-19T19:12:36.062Z,8.43
2023-04-19T19:17:38.125Z,8.20
2023-04-19T19:22:40.275Z,8.48
2023-04-19T19:27:50.135Z,9.13
2023-04-19T19:32:59.941Z,8.95
2023-04-19T19:38:01.488Z,8.35
2023-04-19T19:43:02.977Z,9.68
2023-04-19T19:48:05.069Z,11.07
2023-04-19T19:53:06.547Z,11.23
2023-04-19T20:03:12.743Z,12.50
2023-04-19T20:08:14.684Z,12.52
2023-04-19T20:13:17.040Z,11.82
2023-04-19T20:18:18.562Z,11.10
2023-04-19T20:23:21.594Z,10.73
2023-04-19T20:28:23.119Z,10.70
2023-04-19T20:33:24.559Z,10.90
2023-04-19T20:38:29.101Z,12.43
2023-04-19T20:43:30.577Z,11.13
2023-04-19T20:48:32.237Z,11.43
2023-04-19T20:53:34.146Z,10.60
2023-04-19T20:58:37.837Z,10.38
2023-04-19T21:03:39.469Z,10.27
2023-04-19T21:08:41.044Z,9.90
2023-04-19T21:13:42.608Z,9.60
2023-04-19T21:18:44.044Z,11.05
2023-04-19T21:23:45.475Z,10.40
2023-04-19T21:28:47.023Z,10.23
2023-04-19T21:33:48.472Z,10.75
2023-04-19T21:38:49.941Z,10.20
2023-04-19T21:43:51.403Z,10.23
2023-04-19T21:48:55.554Z,9.57
2023-04-19T21:53:57.369Z,8.90
2023-04-19T21:58:58.834Z,8.88
2023-04-19T22:04:01.863Z,9.10
2023-04-19T22:09:05.636Z,8.93
2023-04-19T22:14:07.781Z,9.43
2023-04-19T22:19:10.065Z,8.73
2023-04-19T22:24:11.514Z,8.90
2023-04-19T22:29:12.955Z,9.20
2023-04-19T22:34:14.406Z,9.80
2023-04-19T22:39:16.096Z,10.50
2023-04-19T22:44:17.794Z,10.18
2023-04-19T22:49:22.085Z,10.00
2023-04-19T22:54:23.514Z,10.90
2023-04-19T22:59:25.076Z,10.48
2023-04-19T23:04:26.951Z,11.25
2023-04-19T23:09:29.729Z,11.20
2023-04-19T23:14:31.396Z,12.07
2023-04-19T23:19:32.832Z,11.85
2023-04-19T23:24:36.167Z,11.43
2023-04-19T23:29:37.684Z,11.00
2023-04-19T23:34:39.116Z,11.70
2023-04-19T23:39:40.676Z,13.23
2023-04-19T23:44:43.911Z,13.63
2023-04-19T23:49:45.664Z,12.07
2023-04-19T23:54:47.083Z,13.68
2023-04-19T23:59:48.538Z,14.10
